sensor_id;sensor_type;location;lat;lon;timestamp;P1;durP1;ratioP1;P2;durP2;ratioP2
78197;SDS011;67472;51.554;7.812;2023-08-12T00:01:24;13.07;;;8.85;;
78197;SDS011;67472;51.554;7.812;2023-08-12T00:04:10;17.30;;;8.45;;
78197;SDS011;67472;51.554;7.812;2023-08-12T00:06:59;13.60;;;7.68;;
78197;SDS011;67472;51.554;7.812;2023-08-12T00:09:45;16.90;;;8.82;;
78197;SDS011;67472;51.554;7.812;2023-08-12T00:12:32;19.83;;;10.32;;
78197;SDS011;67472;51.554;7.812;2023-08-12T00:15:20;22.67;;;11.20;;
78197;SDS011;67472;51.554;7.812;2023-08-12T00:18:06;17.15;;;11.10;;
78197;SDS011;67472;51.554;7.812;2023-08-12T00:20:53;20.02;;;11.55;;
78197;SDS011;67472;51.554;7.812;2023-08-12T00:23:40;13.52;;;10.23;;
78197;SDS011;67472;51.554;7.812;2023-08-12T00:26:27;17.83;;;11.95;;
78197;SDS011;67472;51.554;7.812;2023-08-12T00:29:14;19.98;;;10.65;;
78197;SDS011;67472;51.554;7.812;2023-08-12T00:32:02;18.55;;;11.48;;
78197;SDS011;67472;51.554;7.812;2023-08-12T00:34:48;16.67;;;10.38;;
78197;SDS011;67472;51.554;7.812;2023-08-12T00:37:34;12.05;;;9.23;;
78197;SDS011;67472;51.554;7.812;2023-08-12T00:40:20;18.15;;;11.77;;
78197;SDS011;67472;51.554;7.812;2023-08-12T00:43:07;16.20;;;11.63;;
78197;SDS011;67472;51.554;7.812;2023-08-12T00:45:54;16.15;;;11.88;;
78197;SDS011;67472;51.554;7.812;2023-08-12T00:48:41;17.33;;;10.13;;
78197;SDS011;67472;51.554;7.812;2023-08-12T00:51:28;15.40;;;10.50;;
78197;SDS011;67472;51.554;7.812;2023-08-12T00:54:14;13.32;;;10.65;;
78197;SDS011;67472;51.554;7.812;2023-08-12T00:57:01;17.60;;;10.73;;
78197;SDS011;67472;51.554;7.812;2023-08-12T00:59:48;12.43;;;10.07;;
78197;SDS011;67472;51.554;7.812;2023-08-12T01:02:35;12.02;;;9.38;;
78197;SDS011;67472;51.554;7.812;2023-08-12T01:05:24;17.45;;;11.52;;
78197;SDS011;67472;51.554;7.812;2023-08-12T01:08:10;14.55;;;8.52;;
78197;SDS011;67472;51.554;7.812;2023-08-12T01:10:58;13.63;;;9.23;;
78197;SDS011;67472;51.554;7.812;2023-08-12T01:13:51;18.58;;;11.55;;
78197;SDS011;67472;51.554;7.812;2023-08-12T01:16:43;14.30;;;11.07;;
78197;SDS011;67472;51.554;7.812;2023-08-12T01:19:33;29.98;;;16.38;;
78197;SDS011;67472;51.554;7.812;2023-08-12T01:22:22;23.08;;;14.88;;
78197;SDS011;67472;51.554;7.812;2023-08-12T01:25:12;24.75;;;15.80;;
78197;SDS011;67472;51.554;7.812;2023-08-12T01:27:58;16.88;;;12.07;;
78197;SDS011;67472;51.554;7.812;2023-08-12T01:30:46;19.17;;;13.65;;
78197;SDS011;67472;51.554;7.812;2023-08-12T01:33:39;16.33;;;11.75;;
78197;SDS011;67472;51.554;7.812;2023-08-12T01:36:31;18.88;;;12.90;;
78197;SDS011;67472;51.554;7.812;2023-08-12T01:39:21;17.02;;;13.60;;
78197;SDS011;67472;51.554;7.812;2023-08-12T01:42:11;17.80;;;13.38;;
78197;SDS011;67472;51.554;7.812;2023-08-12T01:44:58;18.30;;;12.38;;
78197;SDS011;67472;51.554;7.812;2023-08-12T01:47:46;17.65;;;13.50;;
78197;SDS011;67472;51.554;7.812;2023-08-12T01:50:35;18.05;;;13.40;;
78197;SDS011;67472;51.554;7.812;2023-08-12T01:53:21;22.95;;;16.98;;
78197;SDS011;67472;51.554;7.812;2023-08-12T01:56:07;24.55;;;14.25;;
78197;SDS011;67472;51.554;7.812;2023-08-12T01:58:55;18.48;;;13.63;;
78197;SDS011;67472;51.554;7.812;2023-08-12T02:01:41;17.45;;;13.10;;
78197;SDS011;67472;51.554;7.812;2023-08-12T02:04:27;23.65;;;17.95;;
78197;SDS011;67472;51.554;7.812;2023-08-12T02:07:14;20.20;;;15.70;;
78197;SDS011;67472;51.554;7.812;2023-08-12T02:10:00;21.90;;;15.35;;
78197;SDS011;67472;51.554;7.812;2023-08-12T02:12:46;19.17;;;15.52;;
78197;SDS011;67472;51.554;7.812;2023-08-12T02:15:34;20.08;;;16.25;;
78197;SDS011;67472;51.554;7.812;2023-08-12T02:18:20;24.80;;;17.08;;
78197;SDS011;67472;51.554;7.812;2023-08-12T02:21:06;22.60;;;17.77;;
78197;SDS011;67472;51.554;7.812;2023-08-12T02:23:52;27.33;;;19.77;;
78197;SDS011;67472;51.554;7.812;2023-08-12T02:26:39;23.60;;;17.38;;
78197;SDS011;67472;51.554;7.812;2023-08-12T02:29:24;26.52;;;20.65;;
78197;SDS011;67472;51.554;7.812;2023-08-12T02:32:12;22.45;;;16.90;;
78197;SDS011;67472;51.554;7.812;2023-08-12T02:34:58;17.95;;;14.50;;
78197;SDS011;67472;51.554;7.812;2023-08-12T02:37:44;27.25;;;20.95;;
78197;SDS011;67472;51.554;7.812;2023-08-12T02:40:30;28.67;;;20.98;;
78197;SDS011;67472;51.554;7.812;2023-08-12T02:43:16;28.50;;;20.65;;
78197;SDS011;67472;51.554;7.812;2023-08-12T02:46:03;31.13;;;21.92;;
78197;SDS011;67472;51.554;7.812;2023-08-12T02:48:51;34.45;;;21.90;;
78197;SDS011;67472;51.554;7.812;2023-08-12T02:51:37;34.72;;;22.83;;
78197;SDS011;67472;51.554;7.812;2023-08-12T02:54:23;29.15;;;21.45;;
78197;SDS011;67472;51.554;7.812;2023-08-12T02:57:09;35.35;;;21.33;;
78197;SDS011;67472;51.554;7.812;2023-08-12T02:59:55;29.75;;;20.67;;
78197;SDS011;67472;51.554;7.812;2023-08-12T03:02:41;27.90;;;21.58;;
78197;SDS011;67472;51.554;7.812;2023-08-12T03:05:30;31.27;;;22.92;;
78197;SDS011;67472;51.554;7.812;2023-08-12T03:08:16;34.38;;;23.15;;
78197;SDS011;67472;51.554;7.812;2023-08-12T03:11:04;33.25;;;23.90;;
78197;SDS011;67472;51.554;7.812;2023-08-12T03:13:50;33.15;;;25.58;;
78197;SDS011;67472;51.554;7.812;2023-08-12T03:16:37;34.75;;;25.40;;
78197;SDS011;67472;51.554;7.812;2023-08-12T03:19:23;33.45;;;25.95;;
78197;SDS011;67472;51.554;7.812;2023-08-12T03:22:11;36.40;;;26.65;;
78197;SDS011;67472;51.554;7.812;2023-08-12T03:24:58;35.10;;;26.30;;
78197;SDS011;67472;51.554;7.812;2023-08-12T03:27:45;35.58;;;25.35;;
78197;SDS011;67472;51.554;7.812;2023-08-12T03:30:31;32.50;;;25.63;;
78197;SDS011;67472;51.554;7.812;2023-08-12T03:33:17;31.15;;;24.88;;
78197;SDS011;67472;51.554;7.812;2023-08-12T03:36:03;35.42;;;27.73;;
78197;SDS011;67472;51.554;7.812;2023-08-12T03:38:52;34.67;;;26.58;;
78197;SDS011;67472;51.554;7.812;2023-08-12T03:41:43;33.08;;;26.17;;
78197;SDS011;67472;51.554;7.812;2023-08-12T03:44:29;32.80;;;25.40;;
78197;SDS011;67472;51.554;7.812;2023-08-12T03:47:15;34.72;;;26.58;;
78197;SDS011;67472;51.554;7.812;2023-08-12T03:50:07;35.08;;;26.90;;
78197;SDS011;67472;51.554;7.812;2023-08-12T03:52:53;36.38;;;27.92;;
78197;SDS011;67472;51.554;7.812;2023-08-12T03:55:41;35.92;;;26.30;;
78197;SDS011;67472;51.554;7.812;2023-08-12T03:58:28;38.35;;;26.88;;
78197;SDS011;67472;51.554;7.812;2023-08-12T04:01:16;40.00;;;25.85;;
78197;SDS011;67472;51.554;7.812;2023-08-12T04:04:03;33.22;;;25.65;;
78197;SDS011;67472;51.554;7.812;2023-08-12T04:06:50;35.03;;;24.17;;
78197;SDS011;67472;51.554;7.812;2023-08-12T04:09:37;35.67;;;25.02;;
78197;SDS011;67472;51.554;7.812;2023-08-12T04:12:24;23.48;;;18.50;;
78197;SDS011;67472;51.554;7.812;2023-08-12T04:15:11;24.00;;;18.63;;
78197;SDS011;67472;51.554;7.812;2023-08-12T04:17:57;18.00;;;14.77;;
78197;SDS011;67472;51.554;7.812;2023-08-12T04:20:44;17.25;;;14.65;;
78197;SDS011;67472;51.554;7.812;2023-08-12T04:23:31;16.00;;;13.80;;
78197;SDS011;67472;51.554;7.812;2023-08-12T04:26:18;15.43;;;12.75;;
78197;SDS011;67472;51.554;7.812;2023-08-12T04:29:05;16.52;;;14.57;;
78197;SDS011;67472;51.554;7.812;2023-08-12T04:31:55;28.13;;;22.65;;
78197;SDS011;67472;51.554;7.812;2023-08-12T04:34:41;23.17;;;19.02;;
78197;SDS011;67472;51.554;7.812;2023-08-12T04:37:28;25.83;;;21.20;;
78197;SDS011;67472;51.554;7.812;2023-08-12T04:40:16;33.53;;;23.98;;
78197;SDS011;67472;51.554;7.812;2023-08-12T04:43:04;37.35;;;22.38;;
78197;SDS011;67472;51.554;7.812;2023-08-12T04:45:51;24.02;;;19.10;;
78197;SDS011;67472;51.554;7.812;2023-08-12T04:48:39;27.83;;;21.52;;
78197;SDS011;67472;51.554;7.812;2023-08-12T04:51:24;30.58;;;22.40;;
78197;SDS011;67472;51.554;7.812;2023-08-12T04:54:11;29.58;;;22.40;;
78197;SDS011;67472;51.554;7.812;2023-08-12T04:56:57;29.75;;;23.08;;
78197;SDS011;67472;51.554;7.812;2023-08-12T04:59:44;32.10;;;24.92;;
78197;SDS011;67472;51.554;7.812;2023-08-12T05:02:32;27.23;;;22.10;;
78197;SDS011;67472;51.554;7.812;2023-08-12T05:05:18;26.02;;;22.80;;
78197;SDS011;67472;51.554;7.812;2023-08-12T05:08:05;17.15;;;14.38;;
78197;SDS011;67472;51.554;7.812;2023-08-12T05:10:52;18.38;;;16.35;;
78197;SDS011;67472;51.554;7.812;2023-08-12T05:13:39;16.88;;;12.90;;
78197;SDS011;67472;51.554;7.812;2023-08-12T05:16:25;19.52;;;13.90;;
78197;SDS011;67472;51.554;7.812;2023-08-12T05:19:13;15.68;;;12.40;;
78197;SDS011;67472;51.554;7.812;2023-08-12T05:21:59;13.95;;;12.55;;
78197;SDS011;67472;51.554;7.812;2023-08-12T05:24:46;13.10;;;11.70;;
78197;SDS011;67472;51.554;7.812;2023-08-12T05:27:33;12.27;;;10.23;;
78197;SDS011;67472;51.554;7.812;2023-08-12T05:30:22;17.98;;;14.55;;
78197;SDS011;67472;51.554;7.812;2023-08-12T05:33:08;20.58;;;14.07;;
78197;SDS011;67472;51.554;7.812;2023-08-12T05:35:56;16.85;;;13.82;;
78197;SDS011;67472;51.554;7.812;2023-08-12T05:38:42;18.15;;;13.88;;
78197;SDS011;67472;51.554;7.812;2023-08-12T05:41:28;14.40;;;12.35;;
78197;SDS011;67472;51.554;7.812;2023-08-12T05:44:14;16.85;;;12.88;;
78197;SDS011;67472;51.554;7.812;2023-08-12T05:47:01;18.15;;;13.38;;
78197;SDS011;67472;51.554;7.812;2023-08-12T05:49:47;15.40;;;11.63;;
78197;SDS011;67472;51.554;7.812;2023-08-12T05:52:34;11.50;;;9.35;;
78197;SDS011;67472;51.554;7.812;2023-08-12T05:55:21;11.90;;;10.00;;
78197;SDS011;67472;51.554;7.812;2023-08-12T05:58:07;10.13;;;8.82;;
78197;SDS011;67472;51.554;7.812;2023-08-12T06:00:53;12.75;;;8.88;;
78197;SDS011;67472;51.554;7.812;2023-08-12T06:03:39;6.97;;;6.13;;
78197;SDS011;67472;51.554;7.812;2023-08-12T06:06:25;5.63;;;4.30;;
78197;SDS011;67472;51.554;7.812;2023-08-12T06:09:13;5.47;;;4.40;;
78197;SDS011;67472;51.554;7.812;2023-08-12T06:11:59;4.00;;;3.50;;
78197;SDS011;67472;51.554;7.812;2023-08-12T06:14:45;3.70;;;3.35;;
78197;SDS011;67472;51.554;7.812;2023-08-12T06:17:31;2.95;;;2.75;;
78197;SDS011;67472;51.554;7.812;2023-08-12T06:20:17;5.65;;;3.22;;
78197;SDS011;67472;51.554;7.812;2023-08-12T06:23:04;4.00;;;3.30;;
78197;SDS011;67472;51.554;7.812;2023-08-12T06:25:51;6.43;;;3.17;;
78197;SDS011;67472;51.554;7.812;2023-08-12T06:28:38;7.22;;;3.40;;
78197;SDS011;67472;51.554;7.812;2023-08-12T06:31:24;3.42;;;2.90;;
78197;SDS011;67472;51.554;7.812;2023-08-12T06:34:10;2.92;;;2.60;;
78197;SDS011;67472;51.554;7.812;2023-08-12T06:36:56;2.95;;;2.55;;
78197;SDS011;67472;51.554;7.812;2023-08-12T06:39:42;3.67;;;2.45;;
78197;SDS011;67472;51.554;7.812;2023-08-12T06:42:29;3.15;;;2.47;;
78197;SDS011;67472;51.554;7.812;2023-08-12T06:45:15;3.10;;;2.90;;
78197;SDS011;67472;51.554;7.812;2023-08-12T06:48:01;3.63;;;2.58;;
78197;SDS011;67472;51.554;7.812;2023-08-12T06:50:52;3.22;;;2.42;;
78197;SDS011;67472;51.554;7.812;2023-08-12T06:53:39;5.43;;;3.35;;
78197;SDS011;67472;51.554;7.812;2023-08-12T06:56:26;6.55;;;2.65;;
78197;SDS011;67472;51.554;7.812;2023-08-12T06:59:13;3.63;;;2.85;;
78197;SDS011;67472;51.554;7.812;2023-08-12T07:01:59;2.90;;;2.65;;
78197;SDS011;67472;51.554;7.812;2023-08-12T07:04:45;3.97;;;2.95;;
78197;SDS011;67472;51.554;7.812;2023-08-12T07:07:31;4.85;;;3.00;;
78197;SDS011;67472;51.554;7.812;2023-08-12T07:10:17;6.63;;;3.10;;
78197;SDS011;67472;51.554;7.812;2023-08-12T07:13:04;3.08;;;2.75;;
78197;SDS011;67472;51.554;7.812;2023-08-12T07:15:51;6.70;;;3.05;;
78197;SDS011;67472;51.554;7.812;2023-08-12T07:18:38;6.93;;;3.05;;
78197;SDS011;67472;51.554;7.812;2023-08-12T07:21:24;3.22;;;2.92;;
78197;SDS011;67472;51.554;7.812;2023-08-12T07:24:10;4.35;;;3.33;;
78197;SDS011;67472;51.554;7.812;2023-08-12T07:26:57;2.90;;;2.70;;
78197;SDS011;67472;51.554;7.812;2023-08-12T07:29:43;3.72;;;2.88;;
78197;SDS011;67472;51.554;7.812;2023-08-12T07:32:30;7.43;;;3.08;;
78197;SDS011;67472;51.554;7.812;2023-08-12T07:35:17;4.45;;;2.97;;
78197;SDS011;67472;51.554;7.812;2023-08-12T07:38:03;4.75;;;3.05;;
78197;SDS011;67472;51.554;7.812;2023-08-12T07:40:49;10.18;;;3.22;;
78197;SDS011;67472;51.554;7.812;2023-08-12T07:43:35;3.55;;;3.03;;
78197;SDS011;67472;51.554;7.812;2023-08-12T07:46:21;6.40;;;2.67;;
78197;SDS011;67472;51.554;7.812;2023-08-12T07:49:09;6.00;;;3.03;;
78197;SDS011;67472;51.554;7.812;2023-08-12T07:51:56;4.80;;;2.80;;
78197;SDS011;67472;51.554;7.812;2023-08-12T07:54:42;3.88;;;2.70;;
78197;SDS011;67472;51.554;7.812;2023-08-12T07:57:28;3.13;;;2.53;;
78197;SDS011;67472;51.554;7.812;2023-08-12T08:00:14;2.60;;;2.38;;
78197;SDS011;67472;51.554;7.812;2023-08-12T08:03:01;4.68;;;2.60;;
78197;SDS011;67472;51.554;7.812;2023-08-12T08:05:48;19.15;;;5.25;;
78197;SDS011;67472;51.554;7.812;2023-08-12T08:08:34;24.33;;;7.40;;
78197;SDS011;67472;51.554;7.812;2023-08-12T08:11:21;6.10;;;2.55;;
78197;SDS011;67472;51.554;7.812;2023-08-12T08:14:09;5.47;;;3.38;;
78197;SDS011;67472;51.554;7.812;2023-08-12T08:16:55;6.50;;;3.33;;
78197;SDS011;67472;51.554;7.812;2023-08-12T08:19:41;3.45;;;2.58;;
78197;SDS011;67472;51.554;7.812;2023-08-12T08:22:29;5.38;;;3.10;;
78197;SDS011;67472;51.554;7.812;2023-08-12T08:25:15;4.70;;;2.47;;
78197;SDS011;67472;51.554;7.812;2023-08-12T08:28:01;2.58;;;2.25;;
78197;SDS011;67472;51.554;7.812;2023-08-12T08:30:48;2.92;;;2.65;;
78197;SDS011;67472;51.554;7.812;2023-08-12T08:33:34;4.40;;;2.30;;
78197;SDS011;67472;51.554;7.812;2023-08-12T08:36:20;3.40;;;2.10;;
78197;SDS011;67472;51.554;7.812;2023-08-12T08:39:09;3.88;;;2.30;;
78197;SDS011;67472;51.554;7.812;2023-08-12T08:41:55;3.17;;;2.20;;
78197;SDS011;67472;51.554;7.812;2023-08-12T08:44:42;3.97;;;1.92;;
78197;SDS011;67472;51.554;7.812;2023-08-12T08:47:28;5.82;;;1.90;;
78197;SDS011;67472;51.554;7.812;2023-08-12T08:50:14;2.45;;;1.85;;
78197;SDS011;67472;51.554;7.812;2023-08-12T08:53:02;2.55;;;2.20;;
78197;SDS011;67472;51.554;7.812;2023-08-12T08:55:53;2.85;;;2.00;;
78197;SDS011;67472;51.554;7.812;2023-08-12T08:58:40;2.22;;;1.90;;
78197;SDS011;67472;51.554;7.812;2023-08-12T09:01:27;3.67;;;1.98;;
78197;SDS011;67472;51.554;7.812;2023-08-12T09:04:15;2.03;;;1.50;;
78197;SDS011;67472;51.554;7.812;2023-08-12T09:07:02;3.28;;;1.75;;
78197;SDS011;67472;51.554;7.812;2023-08-12T09:09:50;3.15;;;1.80;;
78197;SDS011;67472;51.554;7.812;2023-08-12T09:12:39;1.48;;;1.38;;
78197;SDS011;67472;51.554;7.812;2023-08-12T09:15:26;1.75;;;1.65;;
78197;SDS011;67472;51.554;7.812;2023-08-12T09:18:12;1.45;;;1.13;;
78197;SDS011;67472;51.554;7.812;2023-08-12T09:20:58;4.50;;;1.30;;
78197;SDS011;67472;51.554;7.812;2023-08-12T09:23:45;2.03;;;1.60;;
78197;SDS011;67472;51.554;7.812;2023-08-12T09:26:32;2.58;;;1.67;;
78197;SDS011;67472;51.554;7.812;2023-08-12T09:29:21;1.48;;;1.13;;
78197;SDS011;67472;51.554;7.812;2023-08-12T09:32:11;1.75;;;1.40;;
78197;SDS011;67472;51.554;7.812;2023-08-12T09:34:58;1.60;;;1.50;;
78197;SDS011;67472;51.554;7.812;2023-08-12T09:37:47;1.75;;;1.45;;
78197;SDS011;67472;51.554;7.812;2023-08-12T09:40:35;2.08;;;1.40;;
78197;SDS011;67472;51.554;7.812;2023-08-12T09:43:23;2.35;;;1.23;;
78197;SDS011;67472;51.554;7.812;2023-08-12T09:46:11;3.25;;;1.40;;
78197;SDS011;67472;51.554;7.812;2023-08-12T09:48:59;3.70;;;1.23;;
78197;SDS011;67472;51.554;7.812;2023-08-12T09:51:45;1.77;;;1.10;;
78197;SDS011;67472;51.554;7.812;2023-08-12T09:54:31;3.72;;;1.30;;
78197;SDS011;67472;51.554;7.812;2023-08-12T09:57:18;1.88;;;1.35;;
78197;SDS011;67472;51.554;7.812;2023-08-12T10:00:11;2.40;;;1.08;;
78197;SDS011;67472;51.554;7.812;2023-08-12T10:03:03;1.20;;;1.10;;
78197;SDS011;67472;51.554;7.812;2023-08-12T10:05:50;1.00;;;1.00;;
78197;SDS011;67472;51.554;7.812;2023-08-12T10:08:38;2.65;;;0.88;;
78197;SDS011;67472;51.554;7.812;2023-08-12T10:11:27;1.40;;;1.30;;
78197;SDS011;67472;51.554;7.812;2023-08-12T10:14:35;2.03;;;1.60;;
78197;SDS011;67472;51.554;7.812;2023-08-12T10:17:21;3.08;;;1.20;;
78197;SDS011;67472;51.554;7.812;2023-08-12T10:20:14;1.38;;;1.27;;
78197;SDS011;67472;51.554;7.812;2023-08-12T10:23:06;1.80;;;1.35;;
78197;SDS011;67472;51.554;7.812;2023-08-12T10:25:54;1.20;;;1.10;;
78197;SDS011;67472;51.554;7.812;2023-08-12T10:28:40;1.67;;;1.05;;
78197;SDS011;67472;51.554;7.812;2023-08-12T10:31:26;0.95;;;0.95;;
78197;SDS011;67472;51.554;7.812;2023-08-12T10:34:20;1.33;;;1.23;;
78197;SDS011;67472;51.554;7.812;2023-08-12T10:37:09;2.70;;;1.10;;
78197;SDS011;67472;51.554;7.812;2023-08-12T10:39:56;1.73;;;1.00;;
78197;SDS011;67472;51.554;7.812;2023-08-12T10:42:43;3.42;;;0.80;;
78197;SDS011;67472;51.554;7.812;2023-08-12T10:45:40;2.22;;;1.20;;
78197;SDS011;67472;51.554;7.812;2023-08-12T10:48:28;1.10;;;0.95;;
78197;SDS011;67472;51.554;7.812;2023-08-12T10:51:14;1.38;;;1.05;;
78197;SDS011;67472;51.554;7.812;2023-08-12T10:54:16;1.63;;;1.20;;
78197;SDS011;67472;51.554;7.812;2023-08-12T10:57:03;0.73;;;0.73;;
78197;SDS011;67472;51.554;7.812;2023-08-12T10:59:53;1.02;;;0.93;;
78197;SDS011;67472;51.554;7.812;2023-08-12T11:02:40;1.20;;;1.10;;
78197;SDS011;67472;51.554;7.812;2023-08-12T11:05:35;1.20;;;1.10;;
78197;SDS011;67472;51.554;7.812;2023-08-12T11:08:26;16.13;;;7.13;;
78197;SDS011;67472;51.554;7.812;2023-08-12T11:11:20;1.85;;;1.58;;
78197;SDS011;67472;51.554;7.812;2023-08-12T11:14:11;1.55;;;1.20;;
78197;SDS011;67472;51.554;7.812;2023-08-12T11:17:00;3.88;;;0.95;;
78197;SDS011;67472;51.554;7.812;2023-08-12T11:19:58;1.20;;;1.10;;
78197;SDS011;67472;51.554;7.812;2023-08-12T11:22:45;1.42;;;1.33;;
78197;SDS011;67472;51.554;7.812;2023-08-12T11:25:33;3.08;;;1.20;;
78197;SDS011;67472;51.554;7.812;2023-08-12T11:28:22;0.77;;;0.77;;
78197;SDS011;67472;51.554;7.812;2023-08-12T11:31:11;1.27;;;1.20;;
78197;SDS011;67472;51.554;7.812;2023-08-12T11:33:57;5.88;;;0.90;;
78197;SDS011;67472;51.554;7.812;2023-08-12T11:36:43;1.20;;;0.73;;
78197;SDS011;67472;51.554;7.812;2023-08-12T11:39:30;1.35;;;1.10;;
78197;SDS011;67472;51.554;7.812;2023-08-12T11:42:16;1.73;;;1.00;;
78197;SDS011;67472;51.554;7.812;2023-08-12T11:45:04;1.13;;;1.00;;
78197;SDS011;67472;51.554;7.812;2023-08-12T11:47:52;5.70;;;1.48;;
78197;SDS011;67472;51.554;7.812;2023-08-12T11:50:39;2.20;;;1.63;;
78197;SDS011;67472;51.554;7.812;2023-08-12T11:53:26;1.52;;;1.35;;
78197;SDS011;67472;51.554;7.812;2023-08-12T11:56:12;1.38;;;1.27;;
78197;SDS011;67472;51.554;7.812;2023-08-12T11:58:59;1.48;;;1.13;;
78197;SDS011;67472;51.554;7.812;2023-08-12T12:01:48;1.85;;;1.40;;
78197;SDS011;67472;51.554;7.812;2023-08-12T12:04:35;1.55;;;1.25;;
78197;SDS011;67472;51.554;7.812;2023-08-12T12:07:22;2.72;;;1.73;;
78197;SDS011;67472;51.554;7.812;2023-08-12T12:10:12;2.22;;;2.03;;
78197;SDS011;67472;51.554;7.812;2023-08-12T12:13:00;2.25;;;2.15;;
78197;SDS011;67472;51.554;7.812;2023-08-12T12:15:47;2.20;;;2.00;;
78197;SDS011;67472;51.554;7.812;2023-08-12T12:18:35;2.33;;;2.05;;
78197;SDS011;67472;51.554;7.812;2023-08-12T12:21:21;2.22;;;2.03;;
78197;SDS011;67472;51.554;7.812;2023-08-12T12:24:07;2.58;;;2.38;;
78197;SDS011;67472;51.554;7.812;2023-08-12T12:26:54;2.33;;;2.10;;
78197;SDS011;67472;51.554;7.812;2023-08-12T12:29:42;4.93;;;2.83;;
78197;SDS011;67472;51.554;7.812;2023-08-12T12:32:28;8.85;;;2.83;;
78197;SDS011;67472;51.554;7.812;2023-08-12T12:35:16;5.28;;;3.33;;
78197;SDS011;67472;51.554;7.812;2023-08-12T12:38:04;8.13;;;3.17;;
78197;SDS011;67472;51.554;7.812;2023-08-12T12:40:50;4.65;;;3.47;;
78197;SDS011;67472;51.554;7.812;2023-08-12T12:43:36;3.83;;;3.08;;
78197;SDS011;67472;51.554;7.812;2023-08-12T12:46:22;5.68;;;2.63;;
78197;SDS011;67472;51.554;7.812;2023-08-12T12:49:09;3.70;;;2.67;;
78197;SDS011;67472;51.554;7.812;2023-08-12T12:51:57;5.57;;;3.35;;
78197;SDS011;67472;51.554;7.812;2023-08-12T12:54:43;2.88;;;2.65;;
78197;SDS011;67472;51.554;7.812;2023-08-12T12:57:29;3.92;;;2.88;;
78197;SDS011;67472;51.554;7.812;2023-08-12T13:00:15;11.43;;;2.97;;
78197;SDS011;67472;51.554;7.812;2023-08-12T13:03:01;4.45;;;2.33;;
78197;SDS011;67472;51.554;7.812;2023-08-12T13:05:47;4.75;;;2.55;;
78197;SDS011;67472;51.554;7.812;2023-08-12T13:08:36;2.38;;;2.15;;
78197;SDS011;67472;51.554;7.812;2023-08-12T13:11:22;2.15;;;1.63;;
78197;SDS011;67472;51.554;7.812;2023-08-12T13:14:09;3.15;;;2.22;;
78197;SDS011;67472;51.554;7.812;2023-08-12T13:16:55;3.22;;;1.83;;
78197;SDS011;67472;51.554;7.812;2023-08-12T13:19:41;1.23;;;1.15;;
78197;SDS011;67472;51.554;7.812;2023-08-12T13:22:27;2.28;;;1.75;;
78197;SDS011;67472;51.554;7.812;2023-08-12T13:25:15;1.98;;;1.38;;
78197;SDS011;67472;51.554;7.812;2023-08-12T13:28:02;1.80;;;1.65;;
78197;SDS011;67472;51.554;7.812;2023-08-12T13:30:49;1.80;;;1.50;;
78197;SDS011;67472;51.554;7.812;2023-08-12T13:33:35;7.55;;;2.03;;
78197;SDS011;67472;51.554;7.812;2023-08-12T13:36:22;3.83;;;1.27;;
78197;SDS011;67472;51.554;7.812;2023-08-12T13:39:08;0.93;;;0.93;;
78197;SDS011;67472;51.554;7.812;2023-08-12T13:41:56;1.30;;;1.20;;
78197;SDS011;67472;51.554;7.812;2023-08-12T13:44:42;1.65;;;1.20;;
78197;SDS011;67472;51.554;7.812;2023-08-12T13:47:28;1.55;;;1.20;;
78197;SDS011;67472;51.554;7.812;2023-08-12T13:50:14;2.38;;;1.75;;
78197;SDS011;67472;51.554;7.812;2023-08-12T13:53:01;0.93;;;0.93;;
78197;SDS011;67472;51.554;7.812;2023-08-12T13:55:48;1.27;;;1.17;;
78197;SDS011;67472;51.554;7.812;2023-08-12T13:58:35;1.35;;;1.20;;
78197;SDS011;67472;51.554;7.812;2023-08-12T14:01:21;2.67;;;1.50;;
78197;SDS011;67472;51.554;7.812;2023-08-12T14:04:07;1.10;;;1.00;;
78197;SDS011;67472;51.554;7.812;2023-08-12T14:06:53;2.22;;;1.20;;
78197;SDS011;67472;51.554;7.812;2023-08-12T14:09:39;2.45;;;1.20;;
78197;SDS011;67472;51.554;7.812;2023-08-12T14:12:25;2.65;;;1.52;;
78197;SDS011;67472;51.554;7.812;2023-08-12T14:15:13;2.85;;;1.17;;
78197;SDS011;67472;51.554;7.812;2023-08-12T14:17:59;2.80;;;1.50;;
78197;SDS011;67472;51.554;7.812;2023-08-12T14:20:45;3.45;;;0.93;;
78197;SDS011;67472;51.554;7.812;2023-08-12T14:23:31;1.38;;;1.27;;
78197;SDS011;67472;51.554;7.812;2023-08-12T14:26:17;3.63;;;1.80;;
78197;SDS011;67472;51.554;7.812;2023-08-12T14:29:04;2.38;;;1.40;;
78197;SDS011;67472;51.554;7.812;2023-08-12T14:31:52;3.80;;;1.60;;
78197;SDS011;67472;51.554;7.812;2023-08-12T14:34:38;2.08;;;1.88;;
78197;SDS011;67472;51.554;7.812;2023-08-12T14:37:24;2.22;;;2.05;;
78197;SDS011;67472;51.554;7.812;2023-08-12T14:40:12;6.00;;;2.85;;
78197;SDS011;67472;51.554;7.812;2023-08-12T14:42:58;6.53;;;3.13;;
78197;SDS011;67472;51.554;7.812;2023-08-12T14:45:44;3.63;;;3.30;;
78197;SDS011;67472;51.554;7.812;2023-08-12T14:48:32;4.03;;;3.53;;
78197;SDS011;67472;51.554;7.812;2023-08-12T14:51:18;4.38;;;3.92;;
78197;SDS011;67472;51.554;7.812;2023-08-12T14:54:05;3.67;;;3.38;;
78197;SDS011;67472;51.554;7.812;2023-08-12T14:56:52;3.78;;;3.47;;
78197;SDS011;67472;51.554;7.812;2023-08-12T14:59:38;3.75;;;3.22;;
78197;SDS011;67472;51.554;7.812;2023-08-12T15:02:25;3.60;;;3.30;;
78197;SDS011;67472;51.554;7.812;2023-08-12T15:05:12;3.00;;;2.75;;
78197;SDS011;67472;51.554;7.812;2023-08-12T15:07:58;3.60;;;3.30;;
78197;SDS011;67472;51.554;7.812;2023-08-12T15:10:45;4.15;;;3.67;;
78197;SDS011;67472;51.554;7.812;2023-08-12T15:13:30;5.10;;;3.85;;
78197;SDS011;67472;51.554;7.812;2023-08-12T15:16:16;3.85;;;3.45;;
78197;SDS011;67472;51.554;7.812;2023-08-12T15:19:04;4.28;;;3.83;;
78197;SDS011;67472;51.554;7.812;2023-08-12T15:21:52;4.32;;;3.83;;
78197;SDS011;67472;51.554;7.812;2023-08-12T15:24:38;4.45;;;3.90;;
78197;SDS011;67472;51.554;7.812;2023-08-12T15:27:24;4.97;;;4.57;;
78197;SDS011;67472;51.554;7.812;2023-08-12T15:30:11;5.50;;;5.00;;
78197;SDS011;67472;51.554;7.812;2023-08-12T15:32:57;5.68;;;5.18;;
78197;SDS011;67472;51.554;7.812;2023-08-12T15:35:43;6.57;;;5.18;;
78197;SDS011;67472;51.554;7.812;2023-08-12T15:38:31;4.50;;;4.20;;
78197;SDS011;67472;51.554;7.812;2023-08-12T15:41:18;4.63;;;4.22;;
78197;SDS011;67472;51.554;7.812;2023-08-12T15:44:06;6.03;;;5.05;;
78197;SDS011;67472;51.554;7.812;2023-08-12T15:46:52;4.43;;;4.07;;
78197;SDS011;67472;51.554;7.812;2023-08-12T15:49:38;4.97;;;3.65;;
78197;SDS011;67472;51.554;7.812;2023-08-12T15:52:24;4.95;;;3.58;;
78197;SDS011;67472;51.554;7.812;2023-08-12T15:55:12;4.43;;;3.13;;
78197;SDS011;67472;51.554;7.812;2023-08-12T15:57:58;3.50;;;3.13;;
78197;SDS011;67472;51.554;7.812;2023-08-12T16:00:44;3.78;;;3.47;;
78197;SDS011;67472;51.554;7.812;2023-08-12T16:03:33;3.83;;;3.40;;
78197;SDS011;67472;51.554;7.812;2023-08-12T16:06:19;4.72;;;4.32;;
78197;SDS011;67472;51.554;7.812;2023-08-12T16:09:06;5.22;;;4.72;;
78197;SDS011;67472;51.554;7.812;2023-08-12T16:11:53;5.68;;;4.47;;
78197;SDS011;67472;51.554;7.812;2023-08-12T16:14:39;4.80;;;4.28;;
78197;SDS011;67472;51.554;7.812;2023-08-12T16:17:25;4.10;;;3.75;;
78197;SDS011;67472;51.554;7.812;2023-08-12T16:20:11;3.92;;;3.55;;
78197;SDS011;67472;51.554;7.812;2023-08-12T16:22:57;5.60;;;3.97;;
78197;SDS011;67472;51.554;7.812;2023-08-12T16:25:45;4.68;;;3.05;;
78197;SDS011;67472;51.554;7.812;2023-08-12T16:28:33;4.75;;;3.67;;
78197;SDS011;67472;51.554;7.812;2023-08-12T16:31:20;4.25;;;3.80;;
78197;SDS011;67472;51.554;7.812;2023-08-12T16:34:07;4.15;;;3.60;;
78197;SDS011;67472;51.554;7.812;2023-08-12T16:36:53;4.07;;;3.67;;